sensor_id;sensor_type;location;lat;lon;timestamp;pressure;altitude;pressure_sealevel;temperature;humidity
54146;BME280;65909;49.422;7.738;2023-01-08T00:01:27;76000.41;;;-145.25;86.28
54146;BME280;65909;49.422;7.738;2023-01-08T00:03:52;75982.34;;;-145.25;86.77
54146;BME280;65909;49.422;7.738;2023-01-08T00:06:18;75964.31;;;-145.25;85.68
54146;BME280;65909;49.422;7.738;2023-01-08T00:08:45;75974.34;;;-145.25;86.45
54146;BME280;65909;49.422;7.738;2023-01-08T00:11:11;75964.31;;;-145.25;86.75
54146;BME280;65909;49.422;7.738;2023-01-08T00:13:36;75954.28;;;-145.25;86.58
54146;BME280;65909;49.422;7.738;2023-01-08T00:16:07;75952.28;;;-145.25;86.98
54146;BME280;65909;49.422;7.738;2023-01-08T00:18:33;75920.22;;;-145.25;85.63
54146;BME280;65909;49.422;7.738;2023-01-08T00:20:58;75926.22;;;-145.25;86.04
54146;BME280;65909;49.422;7.738;2023-01-08T00:23:24;75908.19;;;-145.25;85.58
54146;BME280;65909;49.422;7.738;2023-01-08T00:25:49;75888.13;;;-145.25;85.01
54146;BME280;65909;49.422;7.738;2023-01-08T00:28:15;75862.06;;;-145.25;84.18
54146;BME280;65909;49.422;7.738;2023-01-08T00:30:41;75864.09;;;-145.25;83.79
54146;BME280;65909;49.422;7.738;2023-01-08T00:33:06;75872.09;;;-145.25;84.09
54146;BME280;65909;49.422;7.738;2023-01-08T00:35:32;75854.06;;;-145.25;83.27
54146;BME280;65909;49.422;7.738;2023-01-08T00:37:57;75854.06;;;-145.25;83.75
54146;BME280;65909;49.422;7.738;2023-01-08T00:40:22;75854.06;;;-145.25;83.25
54146;BME280;65909;49.422;7.738;2023-01-08T00:42:48;75852.06;;;-145.25;83.58
54146;BME280;65909;49.422;7.738;2023-01-08T00:45:13;75834.00;;;-145.25;82.96
54146;BME280;65909;49.422;7.738;2023-01-08T00:47:39;75840.03;;;-145.25;82.90
54146;BME280;65909;49.422;7.738;2023-01-08T00:50:04;75842.03;;;-145.25;83.22
54146;BME280;65909;49.422;7.738;2023-01-08T00:52:30;75842.03;;;-145.25;83.11
54146;BME280;65909;49.422;7.738;2023-01-08T00:54:55;75834.00;;;-145.25;82.80
54146;BME280;65909;49.422;7.738;2023-01-08T00:57:20;75832.00;;;-145.25;82.70
54146;BME280;65909;49.422;7.738;2023-01-08T00:59:46;75815.97;;;-145.25;81.81
54146;BME280;65909;49.422;7.738;2023-01-08T01:02:11;75809.97;;;-145.25;81.84
54146;BME280;65909;49.422;7.738;2023-01-08T01:04:37;75799.94;;;-145.25;82.12
54146;BME280;65909;49.422;7.738;2023-01-08T01:07:03;75811.97;;;-145.25;82.36
54146;BME280;65909;49.422;7.738;2023-01-08T01:09:28;75815.97;;;-145.25;82.62
54146;BME280;65909;49.422;7.738;2023-01-08T01:11:54;75801.94;;;-145.25;82.54
54146;BME280;65909;49.422;7.738;2023-01-08T01:14:19;75809.97;;;-145.25;82.60
54146;BME280;65909;49.422;7.738;2023-01-08T01:16:44;75809.97;;;-145.25;82.42
54146;BME280;65909;49.422;7.738;2023-01-08T01:19:16;75811.97;;;-145.25;82.59
54146;BME280;65909;49.422;7.738;2023-01-08T01:21:42;75787.91;;;-145.25;81.92
54146;BME280;65909;49.422;7.738;2023-01-08T01:24:09;75793.91;;;-145.25;81.66
54146;BME280;65909;49.422;7.738;2023-01-08T01:26:35;75789.91;;;-145.25;81.66
54146;BME280;65909;49.422;7.738;2023-01-08T01:29:01;75793.91;;;-145.25;81.44
54146;BME280;65909;49.422;7.738;2023-01-08T01:31:28;75783.91;;;-145.25;80.44
54146;BME280;65909;49.422;7.738;2023-01-08T01:33:54;75783.91;;;-145.25;80.47
54146;BME280;65909;49.422;7.738;2023-01-08T01:36:21;75785.91;;;-145.25;80.38
54146;BME280;65909;49.422;7.738;2023-01-08T01:38:49;75785.91;;;-145.25;80.25
54146;BME280;65909;49.422;7.738;2023-01-08T01:41:31;75787.91;;;-145.25;79.99
54146;BME280;65909;49.422;7.738;2023-01-08T01:43:58;75789.91;;;-145.25;80.24
54146;BME280;65909;49.422;7.738;2023-01-08T01:46:34;75809.97;;;-145.25;80.88
54146;BME280;65909;49.422;7.738;2023-01-08T01:49:10;75809.97;;;-145.25;80.79
54146;BME280;65909;49.422;7.738;2023-01-08T01:51:39;75821.97;;;-145.25;82.07
54146;BME280;65909;49.422;7.738;2023-01-08T01:54:07;75834.00;;;-145.25;82.46
54146;BME280;65909;49.422;7.738;2023-01-08T01:56:33;75824.00;;;-145.25;81.99
54146;BME280;65909;49.422;7.738;2023-01-08T01:58:59;75799.94;;;-145.25;80.53
54146;BME280;65909;49.422;7.738;2023-01-08T02:01:25;75789.91;;;-145.25;79.78
54146;BME280;65909;49.422;7.738;2023-01-08T02:03:51;75797.94;;;-145.25;80.77
54146;BME280;65909;49.422;7.738;2023-01-08T02:12:11;75777.88;;;-145.25;79.17
54146;BME280;65909;49.422;7.738;2023-01-08T02:15:04;75763.84;;;-145.25;78.81
54146;BME280;65909;49.422;7.738;2023-01-08T02:17:52;75755.84;;;-145.25;78.80
54146;BME280;65909;49.422;7.738;2023-01-08T02:20:28;75753.84;;;-145.25;78.20
54146;BME280;65909;49.422;7.738;2023-01-08T02:23:13;75733.78;;;-145.25;77.64
54146;BME280;65909;49.422;7.738;2023-01-08T02:31:17;75719.75;;;-145.25;76.67
54146;BME280;65909;49.422;7.738;2023-01-08T02:33:44;75713.75;;;-145.25;76.59
54146;BME280;65909;49.422;7.738;2023-01-08T02:38:47;75723.75;;;-145.25;77.07
54146;BME280;65909;49.422;7.738;2023-01-08T02:41:19;75729.78;;;-145.25;77.82
54146;BME280;65909;49.422;7.738;2023-01-08T02:43:50;75729.78;;;-145.25;78.82
54146;BME280;65909;49.422;7.738;2023-01-08T02:46:24;75739.81;;;-145.25;80.19
54146;BME280;65909;49.422;7.738;2023-01-08T02:48:54;75747.81;;;-145.25;81.11
54146;BME280;65909;49.422;7.738;2023-01-08T02:51:41;75757.84;;;-145.25;83.65
54146;BME280;65909;49.422;7.738;2023-01-08T02:54:12;75753.84;;;-145.25;83.45
54146;BME280;65909;49.422;7.738;2023-01-08T02:56:54;75767.88;;;-145.25;83.57
54146;BME280;65909;49.422;7.738;2023-01-08T02:59:23;75765.84;;;-145.25;84.31
54146;BME280;65909;49.422;7.738;2023-01-08T03:01:49;75771.88;;;-145.25;85.24
54146;BME280;65909;49.422;7.738;2023-01-08T03:04:18;75767.88;;;-145.25;85.81
54146;BME280;65909;49.422;7.738;2023-01-08T03:06:44;75771.88;;;-145.25;86.14
54146;BME280;65909;49.422;7.738;2023-01-08T03:09:10;75773.88;;;-145.25;87.62
54146;BME280;65909;49.422;7.738;2023-01-08T03:11:59;75785.91;;;-145.25;89.25
54146;BME280;65909;49.422;7.738;2023-01-08T03:14:34;75787.91;;;-145.25;89.02
54146;BME280;65909;49.422;7.738;2023-01-08T03:17:05;75793.91;;;-145.25;89.68
54146;BME280;65909;49.422;7.738;2023-01-08T03:19:39;75777.88;;;-145.25;89.59
54146;BME280;65909;49.422;7.738;2023-01-08T03:22:10;75795.94;;;-145.25;90.42
54146;BME280;65909;49.422;7.738;2023-01-08T03:24:40;75793.91;;;-145.25;91.98
54146;BME280;65909;49.422;7.738;2023-01-08T03:27:09;75803.94;;;-145.25;92.81
54146;BME280;65909;49.422;7.738;2023-01-08T03:29:38;75819.97;;;-145.25;94.02
54146;BME280;65909;49.422;7.738;2023-01-08T03:32:10;75821.97;;;-145.25;95.36
54146;BME280;65909;49.422;7.738;2023-01-08T03:34:40;75836.00;;;-145.25;96.43
54146;BME280;65909;49.422;7.738;2023-01-08T03:37:07;75819.97;;;-145.25;97.40
54146;BME280;65909;49.422;7.738;2023-01-08T03:39:55;75828.00;;;-145.25;98.59
54146;BME280;65909;49.422;7.738;2023-01-08T03:42:21;75842.03;;;-145.25;100.00
54146;BME280;65909;49.422;7.738;2023-01-08T03:44:47;75844.03;;;-145.25;100.00
54146;BME280;65909;49.422;7.738;2023-01-08T03:47:13;75838.03;;;-145.25;100.00
54146;BME280;65909;49.422;7.738;2023-01-08T03:49:40;75848.03;;;-145.25;100.00
54146;BME280;65909;49.422;7.738;2023-01-08T03:52:07;75854.06;;;-145.25;100.00
54146;BME280;65909;49.422;7.738;2023-01-08T03:54:34;75850.06;;;-145.25;100.00
54146;BME280;65909;49.422;7.738;2023-01-08T03:57:00;75846.03;;;-145.25;100.00
54146;BME280;65909;49.422;7.738;2023-01-08T03:59:26;75846.03;;;-145.25;100.00
54146;BME280;65909;49.422;7.738;2023-01-08T04:01:51;75836.00;;;-145.25;100.00
54146;BME280;65909;49.422;7.738;2023-01-08T04:04:16;75834.00;;;-145.25;100.00
54146;BME280;65909;49.422;7.738;2023-01-08T04:06:42;75840.03;;;-145.25;100.00
54146;BME280;65909;49.422;7.738;2023-01-08T04:09:08;75840.03;;;-145.25;100.00
54146;BME280;65909;49.422;7.738;2023-01-08T04:11:33;75832.00;;;-145.25;100.00
54146;BME280;65909;49.422;7.738;2023-01-08T04:13:59;75830.00;;;-145.25;100.00
54146;BME280;65909;49.422;7.738;2023-01-08T04:16:24;75836.00;;;-145.25;100.00
54146;BME280;65909;49.422;7.738;2023-01-08T04:18:50;75834.00;;;-145.25;100.00
54146;BME280;65909;49.422;7.738;2023-01-08T04:21:15;75819.97;;;-145.25;100.00
54146;BME280;65909;49.422;7.738;2023-01-08T04:23:41;75815.97;;;-145.25;100.00
54146;BME280;65909;49.422;7.738;2023-01-08T04:26:07;75824.00;;;-145.25;100.00
54146;BME280;65909;49.422;7.738;2023-01-08T04:28:33;75813.97;;;-145.25;100.00
54146;BME280;65909;49.422;7.738;2023-01-08T04:30:59;75809.97;;;-145.25;100.00
54146;BME280;65909;49.422;7.738;2023-01-08T04:33:24;75807.94;;;-145.25;100.00
54146;BME280;65909;49.422;7.738;2023-01-08T04:35:50;75815.97;;;-145.25;100.00
54146;BME280;65909;49.422;7.738;2023-01-08T04:38:16;75811.97;;;-145.25;100.00
54146;BME280;65909;49.422;7.738;2023-01-08T04:40:41;75809.97;;;-145.25;100.00
54146;BME280;65909;49.422;7.738;2023-01-08T04:43:06;75815.97;;;-145.25;100.00
54146;BME280;65909;49.422;7.738;2023-01-08T04:45:32;75815.97;;;-145.25;100.00
54146;BME280;65909;49.422;7.738;2023-01-08T04:47:58;75817.97;;;-145.25;100.00
54146;BME280;65909;49.422;7.738;2023-01-08T04:50:24;75819.97;;;-145.25;100.00
54146;BME280;65909;49.422;7.738;2023-01-08T04:52:50;75809.97;;;-145.25;100.00
54146;BME280;65909;49.422;7.738;2023-01-08T04:55:15;75809.97;;;-145.25;100.00
54146;BME280;65909;49.422;7.738;2023-01-08T04:57:40;75805.94;;;-145.25;100.00
54146;BME280;65909;49.422;7.738;2023-01-08T05:00:06;75799.94;;;-145.25;100.00
54146;BME280;65909;49.422;7.738;2023-01-08T05:02:32;75807.94;;;-145.25;100.00
54146;BME280;65909;49.422;7.738;2023-01-08T05:04:58;75799.94;;;-145.25;100.00
54146;BME280;65909;49.422;7.738;2023-01-08T05:07:23;75797.94;;;-145.25;100.00
54146;BME280;65909;49.422;7.738;2023-01-08T05:09:49;75799.94;;;-145.25;100.00
54146;BME280;65909;49.422;7.738;2023-01-08T05:12:14;75793.91;;;-145.25;100.00
54146;BME280;65909;49.422;7.738;2023-01-08T05:14:39;75797.94;;;-145.25;100.00
54146;BME280;65909;49.422;7.738;2023-01-08T05:17:05;75797.94;;;-145.25;100.00
54146;BME280;65909;49.422;7.738;2023-01-08T05:19:30;75793.91;;;-145.25;100.00
54146;BME280;65909;49.422;7.738;2023-01-08T05:21:55;75791.91;;;-145.25;100.00
54146;BME280;65909;49.422;7.738;2023-01-08T05:24:22;75783.91;;;-145.25;100.00
54146;BME280;65909;49.422;7.738;2023-01-08T05:26:47;75793.91;;;-145.25;100.00
54146;BME280;65909;49.422;7.738;2023-01-08T05:29:13;75797.94;;;-145.25;100.00
54146;BME280;65909;49.422;7.738;2023-01-08T05:31:38;75787.91;;;-145.25;100.00
54146;BME280;65909;49.422;7.738;2023-01-08T05:34:03;75781.91;;;-145.25;100.00
54146;BME280;65909;49.422;7.738;2023-01-08T05:36:29;75801.94;;;-145.25;100.00
54146;BME280;65909;49.422;7.738;2023-01-08T05:38:55;75793.91;;;-145.25;100.00
54146;BME280;65909;49.422;7.738;2023-01-08T05:41:20;75793.91;;;-145.25;100.00
54146;BME280;65909;49.422;7.738;2023-01-08T05:43:45;75791.91;;;-145.25;100.00
54146;BME280;65909;49.422;7.738;2023-01-08T05:46:11;75813.97;;;-145.25;100.00
54146;BME280;65909;49.422;7.738;2023-01-08T05:48:36;75801.94;;;-145.25;100.00
54146;BME280;65909;49.422;7.738;2023-01-08T05:51:03;75807.94;;;-145.25;100.00
54146;BME280;65909;49.422;7.738;2023-01-08T05:53:29;75797.94;;;-145.25;100.00
54146;BME280;65909;49.422;7.738;2023-01-08T05:56:00;75793.91;;;-145.25;100.00
54146;BME280;65909;49.422;7.738;2023-01-08T05:58:26;75791.91;;;-145.25;100.00
54146;BME280;65909;49.422;7.738;2023-01-08T06:00:52;75783.91;;;-145.25;100.00
54146;BME280;65909;49.422;7.738;2023-01-08T06:03:21;75783.91;;;-145.25;100.00
54146;BME280;65909;49.422;7.738;2023-01-08T06:05:47;75785.91;;;-145.25;100.00
54146;BME280;65909;49.422;7.738;2023-01-08T06:08:12;75781.91;;;-145.25;100.00
54146;BME280;65909;49.422;7.738;2023-01-08T06:10:38;75773.88;;;-145.25;100.00
54146;BME280;65909;49.422;7.738;2023-01-08T06:13:09;75777.88;;;-145.25;100.00
54146;BME280;65909;49.422;7.738;2023-01-08T06:15:37;75777.88;;;-145.25;100.00
54146;BME280;65909;49.422;7.738;2023-01-08T06:18:03;75783.91;;;-145.25;100.00
54146;BME280;65909;49.422;7.738;2023-01-08T06:20:29;75785.91;;;-145.25;100.00
54146;BME280;65909;49.422;7.738;2023-01-08T06:22:54;75783.91;;;-145.25;100.00
54146;BME280;65909;49.422;7.738;2023-01-08T06:25:19;75783.91;;;-145.25;100.00
54146;BME280;65909;49.422;7.738;2023-01-08T06:27:50;75773.88;;;-145.25;100.00
54146;BME280;65909;49.422;7.738;2023-01-08T06:30:15;75785.91;;;-145.25;100.00
54146;BME280;65909;49.422;7.738;2023-01-08T06:32:40;75801.94;;;-145.25;100.00
54146;BME280;65909;49.422;7.738;2023-01-08T06:35:06;75787.91;;;-145.25;100.00
54146;BME280;65909;49.422;7.738;2023-01-08T06:37:31;75791.91;;;-145.25;100.00
54146;BME280;65909;49.422;7.738;2023-01-08T06:39:57;75783.91;;;-145.25;100.00
54146;BME280;65909;49.422;7.738;2023-01-08T06:42:22;75795.94;;;-145.25;100.00
54146;BME280;65909;49.422;7.738;2023-01-08T06:44:47;75799.94;;;-145.25;100.00
54146;BME280;65909;49.422;7.738;2023-01-08T06:47:13;75799.94;;;-145.25;100.00
54146;BME280;65909;49.422;7.738;2023-01-08T06:49:38;75795.94;;;-145.25;100.00
54146;BME280;65909;49.422;7.738;2023-01-08T06:52:04;75789.91;;;-145.25;100.00
54146;BME280;65909;49.422;7.738;2023-01-08T06:54:29;75795.94;;;-145.25;100.00
54146;BME280;65909;49.422;7.738;2023-01-08T06:56:54;75783.91;;;-145.25;100.00
54146;BME280;65909;49.422;7.738;2023-01-08T06:59:20;75795.94;;;-145.25;100.00
54146;BME280;65909;49.422;7.738;2023-01-08T07:01:45;75797.94;;;-145.25;100.00
54146;BME280;65909;49.422;7.738;2023-01-08T07:04:11;75791.91;;;-145.25;100.00
54146;BME280;65909;49.422;7.738;2023-01-08T07:06:36;75801.94;;;-145.25;100.00
54146;BME280;65909;49.422;7.738;2023-01-08T07:09:01;75801.94;;;-145.25;100.00
54146;BME280;65909;49.422;7.738;2023-01-08T07:11:27;75807.94;;;-145.25;100.00
54146;BME280;65909;49.422;7.738;2023-01-08T07:13:54;75805.94;;;-145.25;100.00
54146;BME280;65909;49.422;7.738;2023-01-08T07:16:20;75801.94;;;-145.25;100.00
54146;BME280;65909;49.422;7.738;2023-01-08T07:18:45;75811.97;;;-145.25;100.00
54146;BME280;65909;49.422;7.738;2023-01-08T07:21:10;75813.97;;;-145.25;100.00
54146;BME280;65909;49.422;7.738;2023-01-08T07:23:36;75819.97;;;-145.25;100.00
54146;BME280;65909;49.422;7.738;2023-01-08T07:26:04;75819.97;;;-145.25;100.00
54146;BME280;65909;49.422;7.738;2023-01-08T07:28:30;75824.00;;;-145.25;100.00
54146;BME280;65909;49.422;7.738;2023-01-08T07:30:55;75815.97;;;-145.25;100.00
54146;BME280;65909;49.422;7.738;2023-01-08T07:33:21;75834.00;;;-145.25;100.00
54146;BME280;65909;49.422;7.738;2023-01-08T07:35:53;75840.03;;;-145.25;100.00
54146;BME280;65909;49.422;7.738;2023-01-08T07:38:19;75826.00;;;-145.25;100.00
54146;BME280;65909;49.422;7.738;2023-01-08T07:40:45;75821.97;;;-145.25;100.00
54146;BME280;65909;49.422;7.738;2023-01-08T07:43:10;75832.00;;;-145.25;100.00
54146;BME280;65909;49.422;7.738;2023-01-08T07:45:39;75828.00;;;-145.25;100.00
54146;BME280;65909;49.422;7.738;2023-01-08T07:48:05;75821.97;;;-145.25;100.00
54146;BME280;65909;49.422;7.738;2023-01-08T07:50:31;75838.03;;;-145.25;100.00
54146;BME280;65909;49.422;7.738;2023-01-08T07:53:00;75834.00;;;-145.25;100.00
54146;BME280;65909;49.422;7.738;2023-01-08T07:55:27;75832.00;;;-145.25;100.00
54146;BME280;65909;49.422;7.738;2023-01-08T07:57:53;75819.97;;;-145.25;100.00
54146;BME280;65909;49.422;7.738;2023-01-08T08:00:19;75815.97;;;-145.25;100.00
54146;BME280;65909;49.422;7.738;2023-01-08T08:02:44;75819.97;;;-145.25;100.00
54146;BME280;65909;49.422;7.738;2023-01-08T08:05:10;75821.97;;;-145.25;100.00
54146;BME280;65909;49.422;7.738;2023-01-08T08:07:35;75832.00;;;-145.25;100.00
54146;BME280;65909;49.422;7.738;2023-01-08T08:10:02;75819.97;;;-145.25;100.00
54146;BME280;65909;49.422;7.738;2023-01-08T08:12:27;75817.97;;;-145.25;100.00
54146;BME280;65909;49.422;7.738;2023-01-08T08:14:53;75819.97;;;-145.25;100.00
54146;BME280;65909;49.422;7.738;2023-01-08T08:17:18;75809.97;;;-145.25;100.00
54146;BME280;65909;49.422;7.738;2023-01-08T08:19:43;75821.97;;;-145.25;100.00
54146;BME280;65909;49.422;7.738;2023-01-08T08:22:11;75807.94;;;-145.25;100.00
54146;BME280;65909;49.422;7.738;2023-01-08T08:24:37;75819.97;;;-145.25;100.00
54146;BME280;65909;49.422;7.738;2023-01-08T08:27:02;75817.97;;;-145.25;100.00
54146;BME280;65909;49.422;7.738;2023-01-08T08:29:27;75817.97;;;-145.25;100.00
54146;BME280;65909;49.422;7.738;2023-01-08T08:31:53;75824.00;;;-145.25;100.00
54146;BME280;65909;49.422;7.738;2023-01-08T08:34:18;75821.97;;;-145.25;100.00
54146;BME280;65909;49.422;7.738;2023-01-08T08:36:46;75826.00;;;-145.25;100.00
54146;BME280;65909;49.422;7.738;2023-01-08T08:39:12;75813.97;;;-145.25;100.00
54146;BME280;65909;49.422;7.738;2023-01-08T08:41:37;75826.00;;;-145.25;100.00
54146;BME280;65909;49.422;7.738;2023-01-08T08:44:03;75836.00;;;-145.25;100.00
54146;BME280;65909;49.422;7.738;2023-01-08T08:46:28;75840.03;;;-145.25;100.00
54146;BME280;65909;49.422;7.738;2023-01-08T08:48:54;75824.00;;;-145.25;100.00
54146;BME280;65909;49.422;7.738;2023-01-08T08:51:19;75834.00;;;-145.25;100.00
54146;BME280;65909;49.422;7.738;2023-01-08T08:53:44;75840.03;;;-145.25;100.00
54146;BME280;65909;49.422;7.738;2023-01-08T08:56:10;75840.03;;;-145.25;100.00
54146;BME280;65909;49.422;7.738;2023-01-08T08:58:35;75842.03;;;-145.25;100.00
54146;BME280;65909;49.422;7.738;2023-01-08T09:01:02;75836.00;;;-145.25;100.00
54146;BME280;65909;49.422;7.738;2023-01-08T09:03:28;75824.00;;;-145.25;100.00
54146;BME280;65909;49.422;7.738;2023-01-08T09:05:54;75842.03;;;-145.25;100.00
54146;BME280;65909;49.422;7.738;2023-01-08T09:08:19;75834.00;;;-145.25;100.00
54146;BME280;65909;49.422;7.738;2023-01-08T09:10:44;75840.03;;;-145.25;100.00
54146;BME280;65909;49.422;7.738;2023-01-08T09:13:10;75832.00;;;-145.25;100.00
54146;BME280;65909;49.422;7.738;2023-01-08T09:15:36;75834.00;;;-145.25;100.00
54146;BME280;65909;49.422;7.738;2023-01-08T09:18:02;75826.00;;;-145.25;100.00
54146;BME280;65909;49.422;7.738;2023-01-08T09:20:27;75842.03;;;-145.25;100.00
54146;BME280;65909;49.422;7.738;2023-01-08T09:22:53;75834.00;;;-145.25;100.00
54146;BME280;65909;49.422;7.738;2023-01-08T09:25:19;75830.00;;;-145.25;100.00
54146;BME280;65909;49.422;7.738;2023-01-08T09:27:44;75826.00;;;-145.25;100.00
54146;BME280;65909;49.422;7.738;2023-01-08T09:30:10;75828.00;;;-145.25;100.00
54146;BME280;65909;49.422;7.738;2023-01-08T09:32:36;75832.00;;;-145.25;100.00
54146;BME280;65909;49.422;7.738;2023-01-08T09:35:02;75836.00;;;-145.25;100.00
54146;BME280;65909;49.422;7.738;2023-01-08T09:37:29;75846.03;;;-145.25;100.00
54146;BME280;65909;49.422;7.738;2023-01-08T09:39:54;75840.03;;;-145.25;100.00
54146;BME280;65909;49.422;7.738;2023-01-08T09:42:22;75842.03;;;-145.25;100.00
54146;BME280;65909;49.422;7.738;2023-01-08T09:44:51;75819.97;;;-145.25;100.00
54146;BME280;65909;49.422;7.738;2023-01-08T09:47:25;75828.00;;;-145.25;100.00
54146;BME280;65909;49.422;7.738;2023-01-08T09:49:53;75832.00;;;-145.25;100.00
54146;BME280;65909;49.422;7.738;2023-01-08T09:52:20;75834.00;;;-145.25;100.00
54146;BME280;65909;49.422;7.738;2023-01-08T09:54:46;75836.00;;;-145.25;100.00
54146;BME280;65909;49.422;7.738;2023-01-08T09:57:19;75811.97;;;-145.25;100.00
54146;BME280;65909;49.422;7.738;2023-01-08T09:59:46;75821.97;;;-145.25;100.00
54146;BME280;65909;49.422;7.738;2023-01-08T10:02:18;75815.97;;;-145.25;100.00
54146;BME280;65909;49.422;7.738;2023-01-08T10:04:53;75815.97;;;-145.25;100.00
54146;BME280;65909;49.422;7.738;2023-01-08T10:07:23;75811.97;;;-145.25;100.00
54146;BME280;65909;49.422;7.738;2023-01-08T10:09:50;75811.97;;;-145.25;100.00
54146;BME280;65909;49.422;7.738;2023-01-08T10:12:27;75805.94;;;-145.25;100.00
54146;BME280;65909;49.422;7.738;2023-01-08T10:15:05;75811.97;;;-145.25;100.00
54146;BME280;65909;49.422;7.738;2023-01-08T10:18:01;75813.97;;;-145.25;100.00
54146;BME280;65909;49.422;7.738;2023-01-08T10:20:25;75803.94;;;-145.25;100.00
54146;BME280;65909;49.422;7.738;2023-01-08T10:22:51;75793.91;;;-145.25;100.00
54146;BME280;65909;49.422;7.738;2023-01-08T10:25:23;75789.91;;;-145.25;100.00
54146;BME280;65909;49.422;7.738;2023-01-08T10:27:57;75789.91;;;-145.25;100.00
54146;BME280;65909;49.422;7.738;2023-01-08T10:30:43;75771.88;;;-145.25;100.00
54146;BME280;65909;49.422;7.738;2023-01-08T10:33:17;75771.88;;;-145.25;100.00
54146;BME280;65909;49.422;7.738;2023-01-08T10:35:51;75771.88;;;-145.25;100.00
54146;BME280;65909;49.422;7.738;2023-01-08T10:38:35;75761.84;;;-145.25;100.00
54146;BME280;65909;49.422;7.738;2023-01-08T10:41:04;75747.81;;;-145.25;100.00
54146;BME280;65909;49.422;7.738;2023-01-08T10:43:34;75749.81;;;-145.25;100.00
54146;BME280;65909;49.422;7.738;2023-01-08T10:46:02;75753.84;;;-145.25;100.00
54146;BME280;65909;49.422;7.738;2023-01-08T10:48:45;75733.78;;;-145.25;100.00
54146;BME280;65909;49.422;7.738;2023-01-08T10:51:15;75741.81;;;-145.25;100.00
54146;BME280;65909;49.422;7.738;2023-01-08T10:53:41;75743.81;;;-145.25;100.00
54146;BME280;65909;49.422;7.738;2023-01-08T10:56:20;75751.81;;;-145.25;100.00
54146;BME280;65909;49.422;7.738;2023-01-08T10:58:46;75747.81;;;-145.25;100.00
54146;BME280;65909;49.422;7.738;2023-01-08T11:01:17;75735.78;;;-145.25;100.00
54146;BME280;65909;49.422;7.738;2023-01-08T11:03:48;75727.78;;;-145.25;100.00
54146;BME280;65909;49.422;7.738;2023-01-08T11:06:23;75705.72;;;-145.25;100.00
54146;BME280;65909;49.422;7.738;2023-01-08T11:08:51;75671.66;;;-145.25;100.00
54146;BME280;65909;49.422;7.738;2023-01-08T11:11:17;75629.56;;;-145.25;97.60
54146;BME280;65909;49.422;7.738;2023-01-08T11:13:59;75611.50;;;-145.25;97.18
54146;BME280;65909;49.422;7.738;2023-01-08T11:16:37;75469.19;;;-145.25;90.78
54146;BME280;65909;49.422;7.738;2023-01-08T11:19:04;75405.06;;;-145.25;88.70
54146;BME280;65909;49.422;7.738;2023-01-08T11:21:39;75453.16;;;-145.25;89.22
54146;BME280;65909;49.422;7.738;2023-01-08T11:24:14;75499.28;;;-145.25;91.26
54146;BME280;65909;49.422;7.738;2023-01-08T11:26:47;75521.31;;;-145.25;92.59
54146;BME280;65909;49.422;7.738;2023-01-08T11:29:17;75559.41;;;-145.25;93.98
54146;BME280;65909;49.422;7.738;2023-01-08T11:34:32;75525.31;;;-145.25;89.91
54146;BME280;65909;49.422;7.738;2023-01-08T11:37:07;75499.28;;;-145.25;91.58
54146;BME280;65909;49.422;7.738;2023-01-08T11:39:37;75429.13;;;-145.25;89.03
54146;BME280;65909;49.422;7.738;2023-01-08T11:45:36;75366.97;;;-145.25;85.97
54146;BME280;65909;49.422;7.738;2023-01-08T11:48:18;75391.03;;;-145.25;85.66
54146;BME280;65909;49.422;7.738;2023-01-08T11:50:56;75437.13;;;-145.25;87.08
54146;BME280;65909;49.422;7.738;2023-01-08T12:05:03;75467.19;;;-145.25;87.97
54146;BME280;65909;49.422;7.738;2023-01-08T12:10:23;75491.25;;;-145.25;89.62
54146;BME280;65909;49.422;7.738;2023-01-08T12:12:55;75477.22;;;-145.25;90.06
54146;BME280;65909;49.422;7.738;2023-01-08T12:21:01;75467.19;;;-145.25;88.76
54146;BME280;65909;49.422;7.738;2023-01-08T12:23:42;75465.19;;;-145.25;87.96
54146;BME280;65909;49.422;7.738;2023-01-08T12:26:36;75455.16;;;-145.25;88.40
54146;BME280;65909;49.422;7.738;2023-01-08T12:29:14;75471.22;;;-145.25;89.28
54146;BME280;65909;49.422;7.738;2023-01-08T12:31:46;75473.22;;;-145.25;89.25
54146;BME280;65909;49.422;7.738;2023-01-08T12:34:26;75469.19;;;-145.25;88.61
54146;BME280;65909;49.422;7.738;2023-01-08T12:37:06;75477.22;;;-145.25;89.36
54146;BME280;65909;49.422;7.738;2023-01-08T12:39:42;75471.22;;;-145.25;89.46
54146;BME280;65909;49.422;7.738;2023-01-08T12:42:13;75433.13;;;-145.25;89.36
54146;BME280;65909;49.422;7.738;2023-01-08T12:44:41;75453.16;;;-145.25;88.79
54146;BME280;65909;49.422;7.738;2023-01-08T12:47:12;75471.22;;;-145.25;89.15
54146;BME280;65909;49.422;7.738;2023-01-08T12:49:49;75485.25;;;-145.25;88.43
54146;BME280;65909;49.422;7.738;2023-01-08T12:52:25;75467.19;;;-145.25;89.10
54146;BME280;65909;49.422;7.738;2023-01-08T12:57:43;75465.19;;;-145.25;88.27
54146;BME280;65909;49.422;7.738;2023-01-08T13:00:40;75441.13;;;-145.25;88.47
54146;BME280;65909;49.422;7.738;2023-01-08T13:03:12;75437.13;;;-145.25;87.35
54146;BME280;65909;49.422;7.738;2023-01-08T13:05:40;75415.09;;;-145.25;87.68
54146;BME280;65909;49.422;7.738;2023-01-08T13:10:50;75419.09;;;-145.25;87.36
54146;BME280;65909;49.422;7.738;2023-01-08T13:13:29;75405.06;;;-145.25;86.48
54146;BME280;65909;49.422;7.738;2023-01-08T13:16:24;75393.03;;;-145.25;86.43
54146;BME280;65909;49.422;7.738;2023-01-08T13:18:54;75409.06;;;-145.25;86.24
54146;BME280;65909;49.422;7.738;2023-01-08T13:24:22;75413.09;;;-145.25;86.34
54146;BME280;65909;49.422;7.738;2023-01-08T13:26:44;75427.09;;;-145.25;87.50
54146;BME280;65909;49.422;7.738;2023-01-08T13:29:36;75427.09;;;-145.25;87.63